createdAt,value
2022-11-15T00:01:16.515Z,0.50
2022-11-15T00:04:14.784Z,0.40
2022-11-15T00:07:02.900Z,0.40
2022-11-15T00:09:51.318Z,0.30
2022-11-15T00:12:39.734Z,0.32
2022-11-15T00:15:28.047Z,0.28
2022-11-15T00:18:22.083Z,0.40
2022-11-15T00:21:18.858Z,0.30
2022-11-15T00:24:27.565Z,0.45
2022-11-15T00:27:19.597Z,0.20
2022-11-15T00:30:12.464Z,0.30
2022-11-15T00:33:07.592Z,0.32
2022-11-15T00:36:05.929Z,0.32
2022-11-15T00:38:54.935Z,0.30
2022-11-15T00:41:49.150Z,1.23
2022-11-15T00:44:38.737Z,0.40
2022-11-15T00:47:54.837Z,1.00
2022-11-15T00:50:44.586Z,0.30
2022-11-15T00:53:32.961Z,0.40
2022-11-15T00:59:35.235Z,0.45
2022-11-15T01:02:33.471Z,0.32
2022-11-15T01:05:22.310Z,0.60
2022-11-15T01:08:21.429Z,0.40
2022-11-15T01:11:13.099Z,0.30
2022-11-15T01:14:00.943Z,0.40
2022-11-15T01:16:50.112Z,0.22
2022-11-15T01:19:39.198Z,0.40
2022-11-15T01:22:27.212Z,0.45
2022-11-15T01:25:17.475Z,0.50
2022-11-15T01:28:06.632Z,0.40
2022-11-15T01:30:55.772Z,0.60
2022-11-15T01:33:44.355Z,0.40
2022-11-15T01:36:32.782Z,0.40
2022-11-15T01:39:21.419Z,0.30
2022-11-15T01:42:15.659Z,0.20
2022-11-15T01:45:04.098Z,0.40
2022-11-15T01:47:55.216Z,0.30
2022-11-15T01:50:43.447Z,0.40
2022-11-15T01:53:34.565Z,0.40
2022-11-15T01:56:27.505Z,0.38
2022-11-15T01:59:15.928Z,0.25
2022-11-15T02:02:05.101Z,0.40
2022-11-15T02:04:53.472Z,0.40
2022-11-15T02:07:41.887Z,1.48
2022-11-15T02:10:31.504Z,0.40
2022-11-15T02:13:21.770Z,0.70
2022-11-15T02:16:30.372Z,0.50
2022-11-15T02:19:30.322Z,0.30
2022-11-15T02:22:48.710Z,0.30
2022-11-15T02:26:18.335Z,0.32
2022-11-15T02:29:10.868Z,0.32
2022-11-15T02:32:10.444Z,1.10
2022-11-15T02:35:05.993Z,0.60
2022-11-15T02:38:08.594Z,0.32
2022-11-15T02:41:03.090Z,0.30
2022-11-15T02:44:03.524Z,0.40
2022-11-15T02:47:17.437Z,0.47
2022-11-15T02:50:12.743Z,0.20
2022-11-15T02:53:01.540Z,0.40
2022-11-15T02:55:52.759Z,0.30
2022-11-15T02:59:08.347Z,0.25
2022-11-15T03:02:04.064Z,0.22
2022-11-15T03:04:57.893Z,0.25
2022-11-15T03:07:59.415Z,0.38
2022-11-15T03:10:55.933Z,0.43
2022-11-15T03:14:05.440Z,0.40
2022-11-15T03:17:02.936Z,0.40
2022-11-15T03:19:56.177Z,0.52
2022-11-15T03:22:46.841Z,0.40
2022-11-15T03:25:39.417Z,0.40
2022-11-15T03:28:37.497Z,0.32
2022-11-15T03:31:50.311Z,0.20
2022-11-15T03:34:49.009Z,0.43
2022-11-15T03:37:53.317Z,0.50
2022-11-15T03:40:44.927Z,0.32
2022-11-15T03:43:46.407Z,0.45
2022-11-15T03:46:42.567Z,0.35
2022-11-15T03:49:36.377Z,0.38
2022-11-15T03:52:25.271Z,0.50
2022-11-15T03:55:17.945Z,0.47
2022-11-15T03:58:06.689Z,0.60
2022-11-15T04:00:55.080Z,0.30
2022-11-15T04:03:43.178Z,0.30
2022-11-15T04:06:31.411Z,0.50
2022-11-15T04:09:19.624Z,0.50
2022-11-15T04:12:09.167Z,0.22
2022-11-15T04:15:09.261Z,0.40
2022-11-15T04:17:59.521Z,0.45
2022-11-15T04:21:05.469Z,0.47
2022-11-15T04:24:12.808Z,0.43
2022-11-15T04:27:01.353Z,0.40
2022-11-15T04:29:49.356Z,0.35
2022-11-15T04:35:24.934Z,0.50
2022-11-15T04:38:14.149Z,0.30
2022-11-15T04:41:02.503Z,0.50
2022-11-15T04:43:50.612Z,0.40
2022-11-15T04:46:39.328Z,0.30
2022-11-15T04:49:27.672Z,0.60
2022-11-15T04:52:16.021Z,0.50
2022-11-15T04:58:03.725Z,0.40
2022-11-15T05:00:51.898Z,0.35
2022-11-15T05:03:58.654Z,0.30
2022-11-15T05:06:47.094Z,0.43
2022-11-15T05:09:35.686Z,0.40
2022-11-15T05:15:12.331Z,0.47
2022-11-15T05:18:02.814Z,0.40
2022-11-15T05:20:51.027Z,0.40
2022-11-15T05:23:40.083Z,0.45
2022-11-15T05:26:28.668Z,0.55
2022-11-15T05:29:16.667Z,0.32
2022-11-15T05:32:07.844Z,0.45
2022-11-15T05:34:56.864Z,0.32
2022-11-15T05:37:45.288Z,0.45
2022-11-15T05:40:35.207Z,0.40
2022-11-15T05:43:24.679Z,0.40
2022-11-15T05:46:13.480Z,0.50
2022-11-15T05:49:02.149Z,0.43
2022-11-15T05:51:51.820Z,0.55
2022-11-15T05:54:40.570Z,0.50
2022-11-15T05:57:28.881Z,0.45
2022-11-15T06:00:17.854Z,0.40
2022-11-15T06:03:06.261Z,0.40
2022-11-15T06:05:54.547Z,0.70
2022-11-15T06:08:42.661Z,0.60
2022-11-15T06:11:30.736Z,0.40
2022-11-15T06:14:19.155Z,0.38
2022-11-15T06:17:11.177Z,0.60
2022-11-15T06:19:59.680Z,0.60
2022-11-15T06:22:47.884Z,0.50
2022-11-15T06:25:36.202Z,0.43
2022-11-15T06:28:24.612Z,0.52
2022-11-15T06:34:04.166Z,0.50
2022-11-15T06:36:52.346Z,0.70
2022-11-15T06:39:40.609Z,0.60
2022-11-15T06:42:29.002Z,0.80
2022-11-15T06:48:05.714Z,0.43
2022-11-15T06:50:58.183Z,0.47
2022-11-15T06:53:46.354Z,0.52
2022-11-15T06:56:35.892Z,0.47
2022-11-15T06:59:24.060Z,0.80
2022-11-15T07:02:16.358Z,0.50
2022-11-15T07:05:04.657Z,0.50
2022-11-15T07:07:57.265Z,0.63
2022-11-15T07:10:45.346Z,0.63
2022-11-15T07:16:25.024Z,0.70
2022-11-15T07:19:13.529Z,0.65
2022-11-15T07:24:49.876Z,0.60
2022-11-15T07:27:38.283Z,0.65
2022-11-15T07:30:27.903Z,0.73
2022-11-15T07:33:16.093Z,0.43
2022-11-15T07:36:06.407Z,0.70
2022-11-15T07:38:54.605Z,0.50
2022-11-15T07:41:42.962Z,0.77
2022-11-15T07:44:31.174Z,0.60
2022-11-15T07:47:19.667Z,0.60
2022-11-15T07:50:08.210Z,0.50
2022-11-15T07:53:01.067Z,0.82
2022-11-15T07:55:49.594Z,0.40
2022-11-15T07:58:38.771Z,0.40
2022-11-15T08:01:26.871Z,0.55
2022-11-15T08:04:15.270Z,0.50
2022-11-15T08:07:03.567Z,0.43
2022-11-15T08:09:52.182Z,0.80
2022-11-15T08:12:40.363Z,0.60
2022-11-15T08:15:29.343Z,0.50
2022-11-15T08:18:19.086Z,1.00
2022-11-15T08:21:08.662Z,0.60
2022-11-15T08:23:56.976Z,0.68
2022-11-15T08:26:45.131Z,0.55
2022-11-15T08:29:33.888Z,0.77
2022-11-15T08:32:22.017Z,0.57
2022-11-15T08:37:59.081Z,0.55
2022-11-15T08:43:35.570Z,0.70
2022-11-15T08:46:23.953Z,0.80
2022-11-15T08:49:12.049Z,0.77
2022-11-15T08:51:59.774Z,0.50
2022-11-15T08:54:48.475Z,0.68
2022-11-15T08:57:36.914Z,0.63
2022-11-15T09:03:12.765Z,0.57
2022-11-15T09:06:02.181Z,0.75
2022-11-15T09:08:50.647Z,0.80
2022-11-15T09:11:39.726Z,0.70
2022-11-15T09:14:27.461Z,0.60
2022-11-15T09:17:19.145Z,0.75
2022-11-15T09:20:11.118Z,0.80
2022-11-15T09:23:05.930Z,0.47
2022-11-15T09:25:56.399Z,0.65
2022-11-15T09:28:44.983Z,0.65
2022-11-15T09:31:33.183Z,0.47
2022-11-15T09:34:23.066Z,0.63
2022-11-15T09:37:11.367Z,0.50
2022-11-15T09:39:59.662Z,0.60
2022-11-15T09:42:55.714Z,0.73
2022-11-15T09:45:55.636Z,0.60
2022-11-15T09:49:01.825Z,0.63
2022-11-15T09:52:07.177Z,1.00
2022-11-15T09:54:53.488Z,0.93
2022-11-15T09:57:44.945Z,0.95
2022-11-15T10:00:47.569Z,0.98
2022-11-15T10:03:36.734Z,0.85
2022-11-15T10:06:08.863Z,1.02
2022-11-15T10:08:57.731Z,1.10
2022-11-15T10:11:38.140Z,0.80
2022-11-15T10:14:27.777Z,1.00
2022-11-15T10:17:18.872Z,0.80
2022-11-15T10:20:05.909Z,0.80
2022-11-15T10:22:52.713Z,0.82
2022-11-15T10:25:30.924Z,0.90
2022-11-15T10:28:01.139Z,1.02
2022-11-15T10:30:38.582Z,0.70
2022-11-15T10:33:27.832Z,0.70
2022-11-15T10:36:15.612Z,1.10
2022-11-15T10:38:51.587Z,0.70
2022-11-15T10:41:33.917Z,1.90
2022-11-15T10:44:13.706Z,0.52
2022-11-15T10:46:47.367Z,0.60
2022-11-15T10:49:22.201Z,0.52
2022-11-15T10:51:56.317Z,0.50
2022-11-15T10:54:30.247Z,1.30
2022-11-15T10:57:03.363Z,0.60
2022-11-15T10:59:39.455Z,1.95
2022-11-15T11:03:03.112Z,1.10
2022-11-15T11:05:42.180Z,0.60
2022-11-15T11:08:16.188Z,0.40
2022-11-15T11:11:03.597Z,0.40
2022-11-15T11:13:42.119Z,0.80
2022-11-15T11:16:17.970Z,0.60
2022-11-15T11:19:07.061Z,0.70
2022-11-15T11:22:02.537Z,0.52
2022-11-15T11:24:43.603Z,0.63
2022-11-15T11:27:43.090Z,0.55
2022-11-15T11:30:18.443Z,0.60
2022-11-15T11:36:01.050Z,0.50
2022-11-15T11:39:08.364Z,0.85
2022-11-15T11:41:48.736Z,0.43
2022-11-15T11:44:40.505Z,0.50
2022-11-15T11:47:14.518Z,0.70
2022-11-15T11:49:50.845Z,0.77
2022-11-15T11:52:29.964Z,0.47
2022-11-15T11:55:18.294Z,0.65
2022-11-15T11:58:16.215Z,0.38
2022-11-15T12:00:55.173Z,0.50
2022-11-15T12:03:28.445Z,0.57
2022-11-15T12:06:31.358Z,0.50
2022-11-15T12:09:05.152Z,0.60
2022-11-15T12:11:55.655Z,0.55
2022-11-15T12:14:48.690Z,0.57
2022-11-15T12:17:24.075Z,0.50
2022-11-15T12:20:01.592Z,0.40
2022-11-15T12:22:41.241Z,0.40
2022-11-15T12:25:48.723Z,0.60
2022-11-15T12:28:37.619Z,0.28
2022-11-15T12:31:35.143Z,0.38
2022-11-15T12:34:16.980Z,0.43
2022-11-15T12:36:47.493Z,0.32
2022-11-15T12:39:18.430Z,3.55
2022-11-15T12:41:57.566Z,0.50
2022-11-15T12:44:33.672Z,0.40
2022-11-15T12:47:24.676Z,0.50
2022-11-15T12:49:55.628Z,0.35
2022-11-15T12:52:29.982Z,0.40
2022-11-15T12:55:34.324Z,0.55
2022-11-15T12:58:41.502Z,0.47
2022-11-15T13:01:12.606Z,0.30
2022-11-15T13:04:19.505Z,0.35
2022-11-15T13:06:55.049Z,0.25
2022-11-15T13:09:39.806Z,0.50
2022-11-15T13:12:24.908Z,0.45
2022-11-15T13:14:57.758Z,0.47
2022-11-15T13:17:47.753Z,0.43
2022-11-15T13:20:17.848Z,0.93
2022-11-15T13:23:04.039Z,0.88
2022-11-15T13:25:51.537Z,0.60
2022-11-15T13:28:21.773Z,0.30
2022-11-15T13:31:32.403Z,0.30
2022-11-15T13:34:17.948Z,0.35
2022-11-15T13:36:56.572Z,0.45
2022-11-15T13:39:30.730Z,0.63
2022-11-15T13:42:02.002Z,0.63
2022-11-15T13:44:36.466Z,0.22
2022-11-15T13:47:09.307Z,0.40
2022-11-15T13:49:39.988Z,0.40
2022-11-15T13:52:19.253Z,0.50
2022-11-15T13:55:09.740Z,0.52
2022-11-15T13:57:47.728Z,0.45
2022-11-15T14:00:42.660Z,0.32
2022-11-15T14:03:26.965Z,0.30
2022-11-15T14:06:13.625Z,0.40
2022-11-15T14:08:59.790Z,0.30
2022-11-15T14:11:30.495Z,0.30
2022-11-15T14:14:15.850Z,0.40
2022-11-15T14:16:48.285Z,0.30
2022-11-15T14:19:27.229Z,0.50
2022-11-15T14:22:15.563Z,0.52
2022-11-15T14:24:48.014Z,0.63
2022-11-15T14:27:26.631Z,0.20
2022-11-15T14:29:57.514Z,0.20
2022-11-15T14:32:32.902Z,0.60
2022-11-15T14:35:04.925Z,1.67
2022-11-15T14:37:39.542Z,0.30
2022-11-15T14:40:14.067Z,0.50
2022-11-15T14:42:47.020Z,0.22
2022-11-15T14:45:22.216Z,0.35
2022-11-15T14:47:52.645Z,0.32
2022-11-15T14:50:24.177Z,0.40
2022-11-15T14:52:54.277Z,0.52
2022-11-15T14:55:30.699Z,0.25
2022-11-15T14:58:04.430Z,0.30
2022-11-15T15:00:35.923Z,0.50
2022-11-15T15:03:07.618Z,0.30
2022-11-15T15:05:40.676Z,0.40
2022-11-15T15:08:12.421Z,0.38
2022-11-15T15:10:46.182Z,0.70
2022-11-15T15:13:24.618Z,0.45
2022-11-15T15:15:55.023Z,0.65
2022-11-15T15:18:24.745Z,0.30
2022-11-15T15:21:01.964Z,0.50
2022-11-15T15:23:33.153Z,0.40
2022-11-15T15:26:03.159Z,0.35
2022-11-15T15:28:34.720Z,0.50
2022-11-15T15:31:05.415Z,0.40
2022-11-15T15:33:35.457Z,0.50
2022-11-15T15:36:05.747Z,0.45
2022-11-15T15:38:36.127Z,1.02
2022-11-15T15:41:06.255Z,0.43
2022-11-15T15:43:35.961Z,0.40
2022-11-15T15:46:05.747Z,0.68
2022-11-15T15:48:39.254Z,0.40
2022-11-15T15:51:16.972Z,0.60
2022-11-15T15:53:50.806Z,0.55
2022-11-15T15:56:20.530Z,0.40
2022-11-15T15:58:50.224Z,0.50
2022-11-15T16:01:20.302Z,0.40
2022-11-15T16:03:50.465Z,0.30
2022-11-15T16:06:36.069Z,0.40
2022-11-15T16:09:15.765Z,0.32
2022-11-15T16:11:49.424Z,0.43
2022-11-15T16:14:19.547Z,0.30
2022-11-15T16:16:49.261Z,0.40
2022-11-15T16:19:18.973Z,0.43
2022-11-15T16:21:48.646Z,0.40
2022-11-15T16:24:18.369Z,1.00
2022-11-15T16:26:49.565Z,0.40
2022-11-15T16:29:19.687Z,0.22
2022-11-15T16:31:49.774Z,0.22
2022-11-15T16:34:19.768Z,0.22
2022-11-15T16:36:49.644Z,0.30
2022-11-15T16:39:20.600Z,0.20
2022-11-15T16:41:51.204Z,0.40
2022-11-15T16:44:21.391Z,0.60
2022-11-15T16:46:53.488Z,0.30
2022-11-15T16:49:24.374Z,0.40
2022-11-15T16:51:55.328Z,0.22
2022-11-15T16:54:25.673Z,0.30
2022-11-15T16:56:55.811Z,0.52
2022-11-15T16:59:25.517Z,0.20
2022-11-15T17:01:55.295Z,0.25
2022-11-15T17:04:25.126Z,0.22
2022-11-15T17:06:55.009Z,0.57
2022-11-15T17:09:25.834Z,0.30
2022-11-15T17:11:55.984Z,0.30
2022-11-15T17:14:25.772Z,0.22
2022-11-15T17:16:58.194Z,0.22
2022-11-15T17:19:28.583Z,0.30
2022-11-15T17:21:58.329Z,0.32
2022-11-15T17:24:28.044Z,0.20
2022-11-15T17:26:57.985Z,0.28
2022-11-15T17:29:27.722Z,0.30
2022-11-15T17:31:57.421Z,0.22
2022-11-15T17:34:27.511Z,0.28
2022-11-15T17:36:57.516Z,0.52
2022-11-15T17:39:27.336Z,0.20
2022-11-15T17:41:57.128Z,0.22
2022-11-15T17:44:26.877Z,0.35
2022-11-15T17:46:56.841Z,0.30
2022-11-15T17:49:26.590Z,0.25
2022-11-15T17:51:57.185Z,0.20
2022-11-15T17:54:26.870Z,0.20
2022-11-15T17:56:56.652Z,0.30
2022-11-15T17:59:26.334Z,0.40
2022-11-15T18:01:56.252Z,0.47
2022-11-15T18:04:30.282Z,0.32
2022-11-15T18:07:00.649Z,0.60
2022-11-15T18:09:30.695Z,0.68
2022-11-15T18:12:00.424Z,0.43
2022-11-15T18:14:30.245Z,0.55
2022-11-15T18:17:00.280Z,0.85
2022-11-15T18:19:30.029Z,0.70
2022-11-15T18:22:02.730Z,0.60
2022-11-15T18:24:39.615Z,0.38
2022-11-15T18:27:09.627Z,0.30
2022-11-15T18:29:39.401Z,0.32
2022-11-15T18:32:13.581Z,0.25
2022-11-15T18:34:45.138Z,0.43
2022-11-15T18:37:15.109Z,0.20
2022-11-15T18:39:46.521Z,0.35
2022-11-15T18:42:19.020Z,0.38
2022-11-15T18:44:49.252Z,0.30
2022-11-15T18:47:18.962Z,0.10
2022-11-15T18:49:48.739Z,0.20
2022-11-15T18:52:18.596Z,0.22
2022-11-15T18:54:48.454Z,0.38
2022-11-15T18:57:18.184Z,0.45
2022-11-15T18:59:47.871Z,0.30
2022-11-15T19:02:17.691Z,0.35
2022-11-15T19:04:47.421Z,0.38
2022-11-15T19:07:17.174Z,0.25
2022-11-15T19:09:47.486Z,0.20
2022-11-15T19:12:17.300Z,0.28
2022-11-15T19:14:47.016Z,0.20
2022-11-15T19:17:16.747Z,0.30
2022-11-15T19:19:46.682Z,0.35
2022-11-15T19:22:16.385Z,0.35
2022-11-15T19:24:46.109Z,0.22
2022-11-15T19:27:15.866Z,0.13
2022-11-15T19:29:45.560Z,0.40
2022-11-15T19:32:15.264Z,0.15
2022-11-15T19:34:45.064Z,0.30
2022-11-15T19:37:14.790Z,0.35
2022-11-15T19:39:44.481Z,0.20
2022-11-15T19:42:14.235Z,0.38
2022-11-15T19:44:45.944Z,0.20
2022-11-15T19:47:16.196Z,0.40
2022-11-15T19:49:47.666Z,0.35
2022-11-15T19:52:17.974Z,0.22
2022-11-15T19:54:48.069Z,0.50
2022-11-15T19:57:19.743Z,0.30
2022-11-15T19:59:49.645Z,0.22
2022-11-15T20:02:19.372Z,0.20
2022-11-15T20:04:49.061Z,0.40
2022-11-15T20:07:18.882Z,0.30
2022-11-15T20:09:48.613Z,0.30
2022-11-15T20:12:18.421Z,0.50
2022-11-15T20:14:48.530Z,0.30
2022-11-15T20:17:18.321Z,0.32
2022-11-15T20:19:48.044Z,0.52
2022-11-15T20:22:17.701Z,0.30
2022-11-15T20:24:47.406Z,0.20
2022-11-15T20:27:17.226Z,0.20
2022-11-15T20:29:46.984Z,0.20
2022-11-15T20:32:16.785Z,0.32
2022-11-15T20:34:50.092Z,0.30
2022-11-15T20:37:23.509Z,0.30
2022-11-15T20:39:53.504Z,0.63
2022-11-15T20:42:23.261Z,0.50
2022-11-15T20:44:52.989Z,0.25
2022-11-15T20:47:26.353Z,0.40
2022-11-15T20:50:15.026Z,0.22
2022-11-15T20:52:49.515Z,0.50
2022-11-15T20:55:19.503Z,0.35
2022-11-15T20:57:49.918Z,0.40
2022-11-15T21:00:25.085Z,0.60
2022-11-15T21:02:55.485Z,0.40
2022-11-15T21:05:25.312Z,0.30
2022-11-15T21:07:55.003Z,0.30
2022-11-15T21:10:42.568Z,0.50
2022-11-15T21:13:12.754Z,0.50
2022-11-15T21:15:42.542Z,0.40
2022-11-15T21:18:12.320Z,0.32
2022-11-15T21:20:42.831Z,0.85
2022-11-15T21:23:13.680Z,0.40
2022-11-15T21:25:43.361Z,0.32
2022-11-15T21:28:13.237Z,0.52
2022-11-15T21:30:43.252Z,0.70
2022-11-15T21:33:13.981Z,0.40
2022-11-15T21:35:44.073Z,0.40
2022-11-15T21:38:13.812Z,0.45
2022-11-15T21:40:43.793Z,0.60
2022-11-15T21:43:13.479Z,0.50
2022-11-15T21:45:43.177Z,0.57
2022-11-15T21:48:12.865Z,1.65
2022-11-15T21:50:42.554Z,0.65
2022-11-15T21:53:12.281Z,0.57
2022-11-15T21:55:41.948Z,0.60
2022-11-15T21:58:11.754Z,0.70
2022-11-15T22:00:59.851Z,1.20
2022-11-15T22:03:30.033Z,0.60
2022-11-15T22:05:59.960Z,0.57
2022-11-15T22:08:29.883Z,0.43
2022-11-15T22:10:59.902Z,0.57
2022-11-15T22:13:29.726Z,0.80
2022-11-15T22:15:59.670Z,0.80
2022-11-15T22:18:30.005Z,1.00
2022-11-15T22:21:04.048Z,0.70
2022-11-15T22:23:35.129Z,0.52
2022-11-15T22:26:06.182Z,0.73
2022-11-15T22:28:36.509Z,0.75
2022-11-15T22:31:06.715Z,0.68
2022-11-15T22:33:37.619Z,0.70
2022-11-15T22:36:08.792Z,0.68
2022-11-15T22:38:38.596Z,0.70
2022-11-15T22:41:08.954Z,1.17
2022-11-15T22:43:39.114Z,1.55
2022-11-15T22:46:11.999Z,1.52
2022-11-15T22:48:42.792Z,2.75
2022-11-15T22:51:12.590Z,2.40
2022-11-15T22:53:42.336Z,2.30
2022-11-15T22:56:15.143Z,2.53
2022-11-15T22:58:49.283Z,2.67
2022-11-15T23:01:23.213Z,3.03
2022-11-15T23:03:53.532Z,2.65
2022-11-15T23:06:23.413Z,3.13
2022-11-15T23:08:53.921Z,2.38
2022-11-15T23:11:42.228Z,2.38
2022-11-15T23:14:12.148Z,2.40
2022-11-15T23:16:41.963Z,2.00
2022-11-15T23:19:12.967Z,2.03
2022-11-15T23:22:04.055Z,2.40
2022-11-15T23:24:35.195Z,2.50
2022-11-15T23:27:11.582Z,1.92
2022-11-15T23:30:13.400Z,2.42
2022-11-15T23:33:02.282Z,1.98
2022-11-15T23:35:32.162Z,2.38
2022-11-15T23:38:01.956Z,2.33
2022-11-15T23:40:32.074Z,1.90
2022-11-15T23:43:01.798Z,1.70
2022-11-15T23:45:31.716Z,1.60
2022-11-15T23:48:01.902Z,1.55
2022-11-15T23:50:33.808Z,1.50
2022-11-15T23:53:04.392Z,1.65
2022-11-15T23:55:34.514Z,1.73
2022-11-15T23:58:04.508Z,1.60
